createdAt,value
2023-03-21T00:02:27.484Z,6.38
2023-03-21T00:05:29.515Z,6.37
2023-03-21T00:08:31.368Z,6.40
2023-03-21T00:11:33.153Z,6.41
2023-03-21T00:14:34.818Z,6.39
2023-03-21T00:17:39.676Z,6.41
2023-03-21T00:20:41.940Z,6.41
2023-03-21T00:23:46.041Z,6.42
2023-03-21T00:26:47.994Z,6.41
2023-03-21T00:29:49.852Z,6.42
2023-03-21T00:32:56.802Z,6.43
2023-03-21T00:36:04.997Z,6.41
2023-03-21T00:39:08.811Z,6.42
2023-03-21T00:42:10.524Z,6.40
2023-03-21T00:45:12.081Z,6.41
2023-03-21T00:48:18.827Z,6.43
2023-03-21T00:51:26.572Z,6.43
2023-03-21T00:54:28.666Z,6.43
2023-03-21T00:57:39.296Z,6.43
2023-03-21T01:00:41.514Z,6.46
2023-03-21T01:03:50.946Z,6.47
2023-03-21T01:06:52.992Z,6.47
2023-03-21T01:09:54.637Z,6.50
2023-03-21T01:12:56.445Z,6.50
2023-03-21T01:15:58.356Z,6.53
2023-03-21T01:19:04.868Z,6.52
2023-03-21T01:22:07.057Z,6.52
2023-03-21T01:25:21.994Z,6.51
2023-03-21T01:28:25.848Z,6.49
2023-03-21T01:31:28.349Z,6.49
2023-03-21T01:34:33.556Z,6.49
2023-03-21T01:37:35.361Z,6.50
2023-03-21T01:40:37.943Z,6.50
2023-03-21T01:43:48.060Z,6.49
2023-03-21T01:50:22.397Z,6.51
2023-03-21T01:53:48.165Z,6.50
2023-03-21T01:56:51.975Z,6.50
2023-03-21T01:59:54.726Z,6.49
2023-03-21T02:03:26.260Z,6.49
2023-03-21T02:06:44.259Z,6.49
2023-03-21T02:10:02.686Z,6.52
2023-03-21T02:13:09.523Z,6.51
2023-03-21T02:16:17.137Z,6.51
2023-03-21T02:19:34.162Z,6.53
2023-03-21T02:22:54.740Z,6.51
2023-03-21T02:26:18.068Z,6.51
2023-03-21T02:29:28.503Z,6.51
2023-03-21T02:32:38.357Z,6.52
2023-03-21T02:35:55.406Z,6.52
2023-03-21T02:39:08.035Z,6.54
2023-03-21T02:42:14.742Z,6.53
2023-03-21T02:45:17.830Z,6.53
2023-03-21T02:48:41.117Z,6.54
2023-03-21T02:51:51.928Z,6.52
2023-03-21T02:54:56.738Z,6.53
2023-03-21T02:58:12.296Z,6.54
2023-03-21T03:01:19.254Z,6.52
2023-03-21T03:04:24.481Z,6.52
2023-03-21T03:07:33.938Z,6.51
2023-03-21T03:10:43.539Z,6.50
2023-03-21T03:13:54.081Z,6.53
2023-03-21T03:17:00.590Z,6.52
2023-03-21T03:20:16.592Z,6.51
2023-03-21T03:23:24.455Z,6.51
2023-03-21T03:26:30.789Z,6.51
2023-03-21T03:29:34.870Z,6.51
2023-03-21T03:32:39.776Z,6.50
2023-03-21T03:35:41.722Z,6.52
2023-03-21T03:38:44.357Z,6.53
2023-03-21T03:42:18.448Z,6.54
2023-03-21T03:45:16.611Z,6.52
2023-03-21T03:48:22.327Z,6.54
2023-03-21T03:51:28.430Z,6.54
2023-03-21T03:54:56.358Z,6.55
2023-03-21T03:58:03.195Z,6.55
2023-03-21T04:01:05.753Z,6.54
2023-03-21T04:04:13.164Z,6.55
2023-03-21T04:07:16.609Z,6.56
2023-03-21T04:10:18.588Z,6.57
2023-03-21T04:13:22.002Z,6.58
2023-03-21T04:16:43.860Z,6.60
2023-03-21T04:19:46.264Z,6.60
2023-03-21T04:22:49.384Z,6.60
2023-03-21T04:25:56.612Z,6.62
2023-03-21T04:29:08.805Z,6.62
2023-03-21T04:32:53.982Z,6.64
2023-03-21T04:35:56.323Z,6.65
2023-03-21T04:39:01.499Z,6.63
2023-03-21T04:42:05.082Z,6.65
2023-03-21T04:45:09.019Z,6.65
2023-03-21T04:48:10.968Z,6.67
2023-03-21T04:51:12.959Z,6.66
2023-03-21T04:57:17.524Z,6.67
2023-03-21T05:00:21.201Z,6.68
2023-03-21T05:03:22.834Z,6.71
2023-03-21T05:06:26.458Z,6.70
2023-03-21T05:09:28.302Z,6.69
2023-03-21T05:12:30.261Z,6.71
2023-03-21T05:15:33.236Z,6.71
2023-03-21T05:18:38.716Z,6.72
2023-03-21T05:21:46.806Z,6.73
2023-03-21T05:24:55.407Z,6.73
2023-03-21T05:28:19.925Z,6.74
2023-03-21T05:31:23.166Z,6.73
2023-03-21T05:34:39.970Z,6.76
2023-03-21T05:37:41.571Z,6.78
2023-03-21T05:40:46.586Z,6.79
2023-03-21T05:43:48.679Z,6.79
2023-03-21T05:46:52.293Z,6.80
2023-03-21T05:49:57.926Z,6.81
2023-03-21T05:53:00.118Z,6.82
2023-03-21T05:56:02.095Z,6.84
2023-03-21T05:59:26.392Z,6.86
2023-03-21T06:02:32.949Z,6.88
2023-03-21T06:05:41.459Z,6.91
2023-03-21T06:08:50.848Z,6.94
2023-03-21T06:11:55.496Z,6.98
2023-03-21T06:15:08.889Z,7.02
2023-03-21T06:18:24.616Z,7.03
2023-03-21T06:21:36.992Z,7.04
2023-03-21T06:24:42.127Z,7.06
2023-03-21T06:27:43.691Z,7.07
2023-03-21T06:30:45.463Z,7.08
2023-03-21T06:33:56.837Z,7.09
2023-03-21T06:36:59.893Z,7.10
2023-03-21T06:40:07.117Z,7.14
2023-03-21T06:43:09.153Z,7.16
2023-03-21T06:46:11.427Z,7.16
2023-03-21T06:49:13.799Z,7.17
2023-03-21T06:52:16.919Z,7.17
2023-03-21T06:55:19.602Z,7.19
2023-03-21T06:58:22.105Z,7.22
2023-03-21T07:01:24.953Z,7.23
2023-03-21T07:04:34.023Z,7.25
2023-03-21T07:07:38.458Z,7.27
2023-03-21T07:10:40.285Z,7.29
2023-03-21T07:13:42.015Z,7.30
2023-03-21T07:16:43.710Z,7.32
2023-03-21T07:19:45.338Z,7.35
2023-03-21T07:22:49.903Z,7.37
2023-03-21T07:25:52.496Z,7.40
2023-03-21T07:28:54.243Z,7.44
2023-03-21T07:31:56.050Z,7.46
2023-03-21T07:34:58.873Z,7.49
2023-03-21T07:38:03.355Z,7.52
2023-03-21T07:41:05.404Z,7.56
2023-03-21T07:44:08.791Z,7.62
2023-03-21T07:47:10.333Z,7.72
2023-03-21T07:50:11.992Z,7.78
2023-03-21T07:53:14.982Z,7.85
2023-03-21T07:56:16.506Z,7.93
2023-03-21T07:59:18.093Z,7.99
2023-03-21T08:02:19.843Z,8.01
2023-03-21T08:05:21.934Z,8.00
2023-03-21T08:08:25.237Z,8.02
2023-03-21T08:11:27.599Z,8.07
2023-03-21T08:14:29.223Z,8.13
2023-03-21T08:17:31.186Z,8.18
2023-03-21T08:20:32.704Z,8.20
2023-03-21T08:23:36.316Z,8.24
2023-03-21T08:26:38.349Z,8.31
2023-03-21T08:29:42.451Z,8.36
2023-03-21T08:32:44.427Z,8.43
2023-03-21T08:35:46.678Z,8.51
2023-03-21T08:38:54.178Z,8.60
2023-03-21T08:41:55.724Z,8.58
2023-03-21T08:44:57.246Z,8.64
2023-03-21T08:47:59.004Z,8.68
2023-03-21T08:51:00.779Z,8.76
2023-03-21T08:54:04.103Z,8.83
2023-03-21T08:57:05.671Z,8.88
2023-03-21T09:00:14.769Z,8.94
2023-03-21T09:03:16.576Z,8.98
2023-03-21T09:06:18.954Z,9.03
2023-03-21T09:09:22.057Z,9.06
2023-03-21T09:12:23.731Z,9.07
2023-03-21T09:15:27.495Z,9.07
2023-03-21T09:18:48.853Z,9.06
2023-03-21T09:21:50.730Z,9.00
2023-03-21T09:24:54.025Z,9.03
2023-03-21T09:27:55.719Z,9.02
2023-03-21T09:30:58.336Z,9.00
2023-03-21T09:34:00.383Z,8.96
2023-03-21T09:37:02.271Z,8.96
2023-03-21T09:40:08.783Z,8.98
2023-03-21T09:43:16.421Z,9.03
2023-03-21T09:46:22.610Z,9.03
2023-03-21T09:49:31.029Z,9.00
2023-03-21T09:52:39.831Z,8.96
2023-03-21T09:55:44.530Z,8.96
2023-03-21T09:58:50.821Z,8.91
2023-03-21T10:01:52.380Z,8.88
2023-03-21T10:04:55.632Z,8.80
2023-03-21T10:08:04.426Z,8.75
2023-03-21T10:11:12.735Z,8.73
2023-03-21T10:14:19.097Z,8.80
2023-03-21T10:17:29.896Z,8.86
2023-03-21T10:20:32.520Z,8.85
2023-03-21T10:23:34.279Z,8.83
2023-03-21T10:26:37.271Z,8.81
2023-03-21T10:29:42.354Z,8.81
2023-03-21T10:32:46.161Z,8.80
2023-03-21T10:35:50.658Z,8.87
2023-03-21T10:38:54.568Z,8.96
2023-03-21T10:41:57.515Z,8.92
2023-03-21T10:44:59.425Z,8.98
2023-03-21T10:48:07.187Z,9.02
2023-03-21T10:51:09.868Z,9.02
2023-03-21T10:54:13.855Z,9.02
2023-03-21T10:57:19.693Z,9.04
2023-03-21T11:00:22.893Z,9.09
2023-03-21T11:03:29.098Z,9.17
2023-03-21T11:06:31.616Z,9.20
2023-03-21T11:09:44.056Z,9.10
2023-03-21T11:12:48.606Z,9.08
2023-03-21T11:15:53.039Z,9.04
2023-03-21T11:18:57.344Z,8.94
2023-03-21T11:21:59.415Z,8.94
2023-03-21T11:25:02.148Z,8.89
2023-03-21T11:28:08.733Z,8.87
2023-03-21T11:31:10.684Z,8.87
2023-03-21T11:34:24.097Z,8.80
2023-03-21T11:37:26.851Z,8.74
2023-03-21T11:40:29.352Z,8.71
2023-03-21T11:43:35.065Z,8.78
2023-03-21T11:46:40.673Z,8.82
2023-03-21T11:49:42.322Z,8.88
2023-03-21T11:52:48.235Z,8.85
2023-03-21T11:55:57.451Z,8.87
2023-03-21T11:59:06.886Z,8.87
2023-03-21T12:02:37.275Z,8.90
2023-03-21T12:05:44.162Z,8.96
2023-03-21T12:08:49.512Z,8.97
2023-03-21T12:11:54.958Z,8.95
2023-03-21T12:15:01.322Z,8.91
2023-03-21T12:22:13.243Z,8.86
2023-03-21T12:25:27.985Z,8.91
2023-03-21T12:28:36.350Z,8.94
2023-03-21T12:31:46.558Z,8.95
2023-03-21T12:34:57.857Z,8.98
2023-03-21T12:38:09.361Z,9.00
2023-03-21T12:41:17.680Z,9.00
2023-03-21T12:44:21.311Z,8.97
2023-03-21T12:47:26.246Z,8.95
2023-03-21T12:50:29.925Z,8.92
2023-03-21T12:53:36.349Z,8.91
2023-03-21T12:56:41.037Z,8.93
2023-03-21T12:59:46.660Z,8.93
2023-03-21T13:02:50.620Z,8.94
2023-03-21T13:05:53.938Z,8.89
2023-03-21T13:08:58.252Z,8.89
2023-03-21T13:12:06.547Z,8.86
2023-03-21T13:15:23.760Z,8.86
2023-03-21T13:18:32.704Z,8.88
2023-03-21T13:21:41.683Z,8.96
2023-03-21T13:24:48.129Z,8.95
2023-03-21T13:27:53.953Z,8.97
2023-03-21T13:37:35.757Z,8.93
2023-03-21T13:40:38.632Z,8.96
2023-03-21T13:43:43.178Z,8.92
2023-03-21T13:46:53.475Z,8.98
2023-03-21T13:50:14.748Z,8.99
2023-03-21T13:53:30.567Z,9.06
2023-03-21T13:56:48.862Z,9.12
2023-03-21T14:00:10.659Z,9.08
2023-03-21T14:03:14.682Z,9.04
2023-03-21T14:06:18.489Z,9.03
2023-03-21T14:09:25.436Z,8.99
2023-03-21T14:12:28.423Z,8.99
2023-03-21T14:15:41.001Z,9.00
2023-03-21T14:18:55.238Z,8.99
2023-03-21T14:21:58.152Z,9.05
2023-03-21T14:25:02.460Z,9.10
2023-03-21T14:28:05.440Z,9.15
2023-03-21T14:31:07.249Z,9.15
2023-03-21T14:34:10.517Z,9.20
2023-03-21T14:37:12.146Z,9.23
2023-03-21T14:40:23.017Z,9.23
2023-03-21T14:43:24.896Z,9.29
2023-03-21T14:46:26.975Z,9.30
2023-03-21T14:49:30.301Z,9.34
2023-03-21T14:52:34.733Z,9.32
2023-03-21T14:55:46.354Z,9.30
2023-03-21T14:58:48.285Z,9.24
2023-03-21T15:01:50.854Z,9.22
2023-03-21T15:04:53.384Z,9.23
2023-03-21T15:07:56.866Z,9.23
2023-03-21T15:11:08.556Z,9.21
2023-03-21T15:14:13.639Z,9.22
2023-03-21T15:17:15.455Z,9.22
2023-03-21T15:20:17.099Z,9.24
2023-03-21T15:23:23.913Z,9.23
2023-03-21T15:26:27.368Z,9.27
2023-03-21T15:29:29.236Z,9.30
2023-03-21T15:32:31.041Z,9.32
2023-03-21T15:35:34.675Z,9.34
2023-03-21T15:38:37.408Z,9.30
2023-03-21T15:41:40.574Z,9.32
2023-03-21T15:44:45.929Z,9.32
2023-03-21T15:47:53.267Z,9.33
2023-03-21T15:50:57.628Z,9.31
2023-03-21T15:54:00.266Z,9.28
2023-03-21T15:57:09.426Z,9.28
2023-03-21T16:00:21.593Z,9.26
2023-03-21T16:03:24.717Z,9.24
2023-03-21T16:06:30.443Z,9.24
2023-03-21T16:09:39.218Z,9.22
2023-03-21T16:12:42.138Z,9.18
2023-03-21T16:15:43.789Z,9.15
2023-03-21T16:18:45.439Z,9.14
2023-03-21T16:21:47.119Z,9.14
2023-03-21T16:24:49.223Z,9.15
2023-03-21T16:27:52.534Z,9.13
2023-03-21T16:30:54.114Z,9.11
2023-03-21T16:33:58.887Z,9.12
2023-03-21T16:37:00.491Z,9.10
2023-03-21T16:40:02.585Z,9.08
2023-03-21T16:43:05.695Z,9.06
2023-03-21T16:46:09.427Z,9.05
2023-03-21T16:49:17.759Z,9.00
2023-03-21T16:52:19.343Z,8.98
2023-03-21T16:55:21.193Z,8.98
2023-03-21T16:58:24.005Z,8.97
2023-03-21T17:01:27.543Z,8.98
2023-03-21T17:04:29.286Z,8.99
2023-03-21T17:07:31.075Z,9.01
2023-03-21T17:10:33.327Z,9.04
2023-03-21T17:13:36.457Z,9.04
2023-03-21T17:16:40.406Z,9.00
2023-03-21T17:19:42.184Z,9.00
2023-03-21T17:22:46.541Z,8.97
2023-03-21T17:25:48.207Z,8.95
2023-03-21T17:28:53.612Z,8.93
2023-03-21T17:31:56.701Z,8.91
2023-03-21T17:34:58.317Z,8.90
2023-03-21T17:38:00.103Z,8.90
2023-03-21T17:41:02.034Z,8.89
2023-03-21T17:44:05.393Z,8.86
2023-03-21T17:47:07.170Z,8.84
2023-03-21T17:50:14.462Z,8.81
2023-03-21T17:53:16.382Z,8.77
2023-03-21T17:56:20.742Z,8.71
2023-03-21T17:59:23.742Z,8.68
2023-03-21T18:02:25.286Z,8.61
2023-03-21T18:05:27.442Z,8.61
2023-03-21T18:08:29.661Z,8.59
2023-03-21T18:11:31.301Z,8.57
2023-03-21T18:14:34.981Z,8.55
2023-03-21T18:17:37.443Z,8.55
2023-03-21T18:20:52.220Z,8.54
2023-03-21T18:23:54.538Z,8.52
2023-03-21T18:26:56.114Z,8.50
2023-03-21T18:33:21.348Z,8.43
2023-03-21T18:36:26.286Z,8.42
2023-03-21T18:39:29.698Z,8.38
2023-03-21T18:42:31.609Z,8.39
2023-03-21T18:45:34.906Z,8.39
2023-03-21T18:48:36.541Z,8.39
2023-03-21T18:51:38.124Z,8.39
2023-03-21T18:54:40.680Z,8.40
2023-03-21T18:57:42.330Z,8.39
2023-03-21T19:00:45.731Z,8.37
2023-03-21T19:04:14.529Z,8.38
2023-03-21T19:10:23.670Z,8.37
2023-03-21T19:13:25.762Z,8.37
2023-03-21T19:16:32.708Z,8.39
2023-03-21T19:19:41.861Z,8.43
2023-03-21T19:22:43.445Z,8.44
2023-03-21T19:25:45.233Z,8.43
2023-03-21T19:28:47.056Z,8.42
2023-03-21T19:31:51.216Z,8.42
2023-03-21T19:34:53.005Z,8.42
2023-03-21T19:37:54.633Z,8.43
2023-03-21T19:40:58.730Z,8.42
2023-03-21T19:44:00.442Z,8.44
2023-03-21T19:47:03.626Z,8.46
2023-03-21T19:50:45.575Z,8.45
2023-03-21T19:53:27.525Z,8.45
2023-03-21T19:56:32.344Z,8.43
2023-03-21T19:59:33.911Z,8.43
2023-03-21T20:02:37.986Z,8.43
2023-03-21T20:05:39.816Z,8.42
2023-03-21T20:12:05.663Z,8.41
2023-03-21T20:15:17.219Z,8.41
2023-03-21T20:18:24.047Z,8.41
2023-03-21T20:21:32.468Z,8.41
2023-03-21T20:24:36.855Z,8.41
2023-03-21T20:27:40.072Z,8.41
2023-03-21T20:30:44.442Z,8.40
2023-03-21T20:33:48.999Z,8.40
2023-03-21T20:36:50.724Z,8.37
2023-03-21T20:39:52.555Z,8.37
2023-03-21T20:42:56.282Z,8.39
2023-03-21T20:46:01.990Z,8.40
2023-03-21T20:49:06.627Z,8.35
2023-03-21T20:52:52.199Z,8.34
2023-03-21T20:55:30.315Z,8.31
2023-03-21T20:58:57.194Z,8.28
2023-03-21T21:01:55.913Z,8.21
2023-03-21T21:05:24.077Z,8.16
2023-03-21T21:08:20.626Z,8.16
2023-03-21T21:14:44.367Z,8.12
2023-03-21T21:18:04.861Z,8.10
2023-03-21T21:21:09.050Z,8.08
2023-03-21T21:24:10.822Z,8.09
2023-03-21T21:27:12.377Z,8.08
2023-03-21T21:30:17.699Z,8.07
2023-03-21T21:36:33.974Z,8.07
2023-03-21T21:39:35.579Z,8.07
2023-03-21T21:42:37.260Z,8.06
2023-03-21T21:45:39.190Z,8.06
2023-03-21T21:48:41.990Z,8.05
2023-03-21T21:51:47.731Z,8.04
2023-03-21T21:54:50.521Z,8.02
2023-03-21T21:57:53.153Z,7.99
2023-03-21T22:00:58.327Z,7.92
2023-03-21T22:04:06.562Z,7.90
2023-03-21T22:07:14.842Z,7.83
2023-03-21T22:10:16.727Z,7.77
2023-03-21T22:13:18.759Z,7.72
2023-03-21T22:16:20.619Z,7.65
2023-03-21T22:19:22.270Z,7.64
2023-03-21T22:22:25.498Z,7.60
2023-03-21T22:25:27.088Z,7.55
2023-03-21T22:28:28.860Z,7.50
2023-03-21T22:31:30.571Z,7.50
2023-03-21T22:34:32.529Z,7.43
2023-03-21T22:37:36.745Z,7.45
2023-03-21T22:40:39.013Z,7.39
2023-03-21T22:43:40.941Z,7.35
2023-03-21T22:46:42.603Z,7.31
2023-03-21T22:49:46.418Z,7.28
2023-03-21T22:52:49.645Z,7.30
2023-03-21T22:55:51.463Z,7.33
2023-03-21T22:58:53.003Z,7.37
2023-03-21T23:01:54.604Z,7.39
2023-03-21T23:04:56.422Z,7.41
2023-03-21T23:07:59.376Z,7.42
2023-03-21T23:11:05.406Z,7.41
2023-03-21T23:14:08.698Z,7.39
2023-03-21T23:17:12.550Z,7.40
2023-03-21T23:20:14.830Z,7.37
2023-03-21T23:23:18.285Z,7.32
2023-03-21T23:26:21.201Z,7.29
2023-03-21T23:29:23.038Z,7.29
2023-03-21T23:32:24.652Z,7.30
2023-03-21T23:35:27.356Z,7.28
2023-03-21T23:38:30.679Z,7.27
2023-03-21T23:41:32.495Z,7.24
2023-03-21T23:44:34.149Z,7.24
2023-03-21T23:47:35.790Z,7.22
2023-03-21T23:50:37.833Z,7.21
2023-03-21T23:53:41.052Z,7.19
2023-03-21T23:56:43.130Z,7.14
2023-03-21T23:59:47.034Z,7.11
